sensor_id;sensor_type;location;lat;lon;timestamp;pressure;altitude;pressure_sealevel;temperature;humidity
45253;BME280;63171;50.520;30.486;2024-02-21T00:00:34;100292.59;;;3.69;100.00
45253;BME280;63171;50.520;30.486;2024-02-21T00:02:03;100285.84;;;3.64;100.00
45253;BME280;63171;50.520;30.486;2024-02-21T00:03:12;100278.13;;;3.62;100.00
45253;BME280;63171;50.520;30.486;2024-02-21T00:04:24;100284.22;;;3.61;100.00
45253;BME280;63171;50.520;30.486;2024-02-21T00:05:42;100285.56;;;3.74;100.00
45253;BME280;63171;50.520;30.486;2024-02-21T00:06:36;100286.31;;;3.78;100.00
45253;BME280;63171;50.520;30.486;2024-02-21T00:08:38;100279.22;;;3.84;100.00
45253;BME280;63171;50.520;30.486;2024-02-21T00:09:32;100275.59;;;3.59;100.00
45253;BME280;63171;50.520;30.486;2024-02-21T00:10:23;100280.13;;;3.52;100.00
45253;BME280;63171;50.520;30.486;2024-02-21T00:11:16;100282.47;;;3.62;100.00
45253;BME280;63171;50.520;30.486;2024-02-21T00:12:12;100284.69;;;3.74;100.00
45253;BME280;63171;50.520;30.486;2024-02-21T00:13:13;100281.00;;;3.82;100.00
45253;BME280;63171;50.520;30.486;2024-02-21T00:14:04;100275.91;;;3.79;100.00
45253;BME280;63171;50.520;30.486;2024-02-21T00:14:56;100272.38;;;3.82;100.00
45253;BME280;63171;50.520;30.486;2024-02-21T00:15:51;100279.22;;;3.84;100.00
45253;BME280;63171;50.520;30.486;2024-02-21T00:16:57;100268.84;;;3.84;100.00
45253;BME280;63171;50.520;30.486;2024-02-21T00:17:50;100279.31;;;3.81;100.00
45253;BME280;63171;50.520;30.486;2024-02-21T00:18:41;100280.41;;;3.73;100.00
45253;BME280;63171;50.520;30.486;2024-02-21T00:19:33;100270.22;;;3.67;100.00
45253;BME280;63171;50.520;30.486;2024-02-21T00:20:24;100276.81;;;3.78;100.00
45253;BME280;63171;50.520;30.486;2024-02-21T00:21:16;100273.09;;;3.89;100.00
45253;BME280;63171;50.520;30.486;2024-02-21T00:22:08;100273.03;;;3.90;100.00
45253;BME280;63171;50.520;30.486;2024-02-21T00:23:00;100268.81;;;3.86;100.00
45253;BME280;63171;50.520;30.486;2024-02-21T00:23:54;100267.16;;;3.83;100.00
45253;BME280;63171;50.520;30.486;2024-02-21T00:24:48;100277.38;;;3.90;100.00
45253;BME280;63171;50.520;30.486;2024-02-21T00:25:42;100271.41;;;3.86;100.00
45253;BME280;63171;50.520;30.486;2024-02-21T00:26:39;100273.22;;;3.82;100.00
45253;BME280;63171;50.520;30.486;2024-02-21T00:27:32;100272.97;;;3.92;100.00
45253;BME280;63171;50.520;30.486;2024-02-21T00:28:22;100270.25;;;3.96;100.00
45253;BME280;63171;50.520;30.486;2024-02-21T00:29:27;100280.53;;;3.99;100.00
45253;BME280;63171;50.520;30.486;2024-02-21T00:30:34;100270.78;;;4.07;100.00
45253;BME280;63171;50.520;30.486;2024-02-21T00:31:33;100274.94;;;4.13;100.00
45253;BME280;63171;50.520;30.486;2024-02-21T00:32:52;100268.16;;;4.09;100.00
45253;BME280;63171;50.520;30.486;2024-02-21T00:33:58;100273.19;;;4.15;100.00
45253;BME280;63171;50.520;30.486;2024-02-21T00:34:55;100263.56;;;4.19;100.00
45253;BME280;63171;50.520;30.486;2024-02-21T00:35:53;100261.75;;;4.21;100.00
45253;BME280;63171;50.520;30.486;2024-02-21T00:36:57;100261.91;;;4.16;100.00
45253;BME280;63171;50.520;30.486;2024-02-21T00:37:53;100267.81;;;4.21;100.00
45253;BME280;63171;50.520;30.486;2024-02-21T00:38:50;100272.78;;;4.27;100.00
45253;BME280;63171;50.520;30.486;2024-02-21T00:39:46;100271.13;;;4.25;100.00
45253;BME280;63171;50.520;30.486;2024-02-21T00:40:51;100263.47;;;4.22;100.00
45253;BME280;63171;50.520;30.486;2024-02-21T00:41:49;100262.56;;;4.23;100.00
45253;BME280;63171;50.520;30.486;2024-02-21T00:42:43;100260.91;;;4.20;100.00
45253;BME280;63171;50.520;30.486;2024-02-21T00:43:38;100261.75;;;4.21;100.00
45253;BME280;63171;50.520;30.486;2024-02-21T00:44:37;100258.28;;;4.22;100.00
45253;BME280;63171;50.520;30.486;2024-02-21T00:45:29;100262.88;;;4.12;100.00
45253;BME280;63171;50.520;30.486;2024-02-21T00:46:31;100257.66;;;4.13;100.00
45253;BME280;63171;50.520;30.486;2024-02-21T00:47:45;100259.28;;;4.18;100.00
45253;BME280;63171;50.520;30.486;2024-02-21T00:48:42;100259.13;;;4.22;100.00
45253;BME280;63171;50.520;30.486;2024-02-21T00:49:37;100255.09;;;4.12;100.00
45253;BME280;63171;50.520;30.486;2024-02-21T00:51:04;100253.50;;;4.08;100.00
45253;BME280;63171;50.520;30.486;2024-02-21T00:51:56;100249.31;;;4.04;100.00
45253;BME280;63171;50.520;30.486;2024-02-21T00:52:50;100253.50;;;4.08;100.00
45253;BME280;63171;50.520;30.486;2024-02-21T00:54:06;100250.00;;;4.09;100.00
45253;BME280;63171;50.520;30.486;2024-02-21T00:55:04;100250.91;;;4.08;100.00
45253;BME280;63171;50.520;30.486;2024-02-21T00:55:59;100246.47;;;4.11;100.00
45253;BME280;63171;50.520;30.486;2024-02-21T00:56:58;100248.09;;;4.15;100.00
45253;BME280;63171;50.520;30.486;2024-02-21T00:57:50;100246.34;;;4.16;100.00
45253;BME280;63171;50.520;30.486;2024-02-21T00:58:40;100243.66;;;4.19;100.00
45253;BME280;63171;50.520;30.486;2024-02-21T00:59:37;100244.38;;;4.24;100.00
45253;BME280;63171;50.520;30.486;2024-02-21T01:02:44;100247.59;;;4.32;100.00
45253;BME280;63171;50.520;30.486;2024-02-21T01:04:07;100239.72;;;4.35;100.00
45253;BME280;63171;50.520;30.486;2024-02-21T01:05:03;100243.00;;;4.40;100.00
45253;BME280;63171;50.520;30.486;2024-02-21T01:05:58;100245.59;;;4.40;100.00
45253;BME280;63171;50.520;30.486;2024-02-21T01:06:58;100230.81;;;4.44;100.00
45253;BME280;63171;50.520;30.486;2024-02-21T01:07:50;100241.19;;;4.44;100.00
45253;BME280;63171;50.520;30.486;2024-02-21T01:08:49;100245.53;;;4.43;100.00
45253;BME280;63171;50.520;30.486;2024-02-21T01:09:41;100240.19;;;4.48;100.00
45253;BME280;63171;50.520;30.486;2024-02-21T01:10:40;100238.44;;;4.49;100.00
45253;BME280;63171;50.520;30.486;2024-02-21T01:11:31;100236.53;;;4.54;100.00
45253;BME280;63171;50.520;30.486;2024-02-21T01:12:22;100230.59;;;4.50;100.00
45253;BME280;63171;50.520;30.486;2024-02-21T01:13:15;100241.03;;;4.49;100.00
45253;BME280;63171;50.520;30.486;2024-02-21T01:14:07;100243.56;;;4.50;100.00
45253;BME280;63171;50.520;30.486;2024-02-21T01:14:59;100228.06;;;4.49;100.00
45253;BME280;63171;50.520;30.486;2024-02-21T01:15:50;100233.09;;;4.53;100.00
45253;BME280;63171;50.520;30.486;2024-02-21T01:16:45;100232.28;;;4.51;100.00
45253;BME280;63171;50.520;30.486;2024-02-21T01:17:38;100230.53;;;4.52;100.00
45253;BME280;63171;50.520;30.486;2024-02-21T01:18:32;100228.81;;;4.52;100.00
45253;BME280;63171;50.520;30.486;2024-02-21T01:19:28;100232.06;;;4.59;100.00
45253;BME280;63171;50.520;30.486;2024-02-21T01:20:21;100226.97;;;4.56;100.00
45253;BME280;63171;50.520;30.486;2024-02-21T01:21:13;100228.75;;;4.54;100.00
45253;BME280;63171;50.520;30.486;2024-02-21T01:22:08;100230.44;;;4.56;100.00
45253;BME280;63171;50.520;30.486;2024-02-21T01:23:03;100231.22;;;4.58;100.00
45253;BME280;63171;50.520;30.486;2024-02-21T01:24:01;100226.03;;;4.58;100.00
45253;BME280;63171;50.520;30.486;2024-02-21T01:24:53;100225.09;;;4.61;100.00
45253;BME280;63171;50.520;30.486;2024-02-21T01:25:48;100227.66;;;4.61;100.00
45253;BME280;63171;50.520;30.486;2024-02-21T01:26:42;100221.78;;;4.56;100.00
45253;BME280;63171;50.520;30.486;2024-02-21T01:27:34;100225.25;;;4.56;100.00
45253;BME280;63171;50.520;30.486;2024-02-21T01:28:29;100220.00;;;4.58;100.00
45253;BME280;63171;50.520;30.486;2024-02-21T01:29:20;100226.97;;;4.56;100.00
45253;BME280;63171;50.520;30.486;2024-02-21T01:30:13;100222.44;;;4.62;100.00
45253;BME280;63171;50.520;30.486;2024-02-21T01:31:10;100224.91;;;4.65;100.00
45253;BME280;63171;50.520;30.486;2024-02-21T01:32:06;100227.56;;;4.64;100.00
45253;BME280;63171;50.520;30.486;2024-02-21T01:32:58;100225.63;;;4.70;100.00
45253;BME280;63171;50.520;30.486;2024-02-21T01:33:51;100223.84;;;4.72;100.00
45253;BME280;63171;50.520;30.486;2024-02-21T01:34:45;100223.00;;;4.72;100.00
45253;BME280;63171;50.520;30.486;2024-02-21T01:35:36;100228.13;;;4.73;100.00
45253;BME280;63171;50.520;30.486;2024-02-21T01:36:42;100230.56;;;4.78;100.00
45253;BME280;63171;50.520;30.486;2024-02-21T01:37:42;100220.09;;;4.81;100.00
45253;BME280;63171;50.520;30.486;2024-02-21T01:38:38;100224.34;;;4.84;100.00
45253;BME280;63171;50.520;30.486;2024-02-21T01:39:31;100215.75;;;4.82;100.00
45253;BME280;63171;50.520;30.486;2024-02-21T01:40:22;100228.69;;;4.83;100.00
45253;BME280;63171;50.520;30.486;2024-02-21T01:41:15;100225.09;;;4.87;100.00
45253;BME280;63171;50.520;30.486;2024-02-21T01:42:08;100229.38;;;4.88;100.00
45253;BME280;63171;50.520;30.486;2024-02-21T01:43:00;100220.75;;;4.88;100.00
45253;BME280;63171;50.520;30.486;2024-02-21T01:43:56;100224.00;;;4.93;100.00
45253;BME280;63171;50.520;30.486;2024-02-21T01:44:48;100222.38;;;4.90;100.00
45253;BME280;63171;50.520;30.486;2024-02-21T01:45:41;100229.47;;;4.85;100.00
45253;BME280;63171;50.520;30.486;2024-02-21T01:46:41;100230.91;;;4.94;100.00
45253;BME280;63171;50.520;30.486;2024-02-21T01:47:34;100222.72;;;4.80;100.00
45253;BME280;63171;50.520;30.486;2024-02-21T01:48:42;100219.28;;;4.79;100.00
45253;BME280;63171;50.520;30.486;2024-02-21T01:50:28;100217.41;;;4.84;100.00
45253;BME280;63171;50.520;30.486;2024-02-21T01:51:46;100217.59;;;4.78;100.00
45253;BME280;63171;50.520;30.486;2024-02-21T01:52:50;100222.19;;;4.70;100.00
45253;BME280;63171;50.520;30.486;2024-02-21T01:53:48;100222.19;;;4.70;100.00
45253;BME280;63171;50.520;30.486;2024-02-21T01:54:45;100226.66;;;4.65;100.00
45253;BME280;63171;50.520;30.486;2024-02-21T01:55:48;100224.78;;;4.70;100.00
45253;BME280;63171;50.520;30.486;2024-02-21T01:56:47;100220.25;;;4.77;100.00
45253;BME280;63171;50.520;30.486;2024-02-21T01:57:39;100223.50;;;4.83;100.00
45253;BME280;63171;50.520;30.486;2024-02-21T01:58:42;100222.66;;;4.83;100.00
45253;BME280;63171;50.520;30.486;2024-02-21T01:59:43;100221.97;;;4.76;100.00
45253;BME280;63171;50.520;30.486;2024-02-21T02:01:12;100222.78;;;4.78;100.00
45253;BME280;63171;50.520;30.486;2024-02-21T02:02:15;100225.28;;;4.81;100.00
45253;BME280;63171;50.520;30.486;2024-02-21T02:03:13;100219.00;;;4.88;100.00
45253;BME280;63171;50.520;30.486;2024-02-21T02:04:08;100221.41;;;4.94;100.00
45253;BME280;63171;50.520;30.486;2024-02-21T02:05:04;100215.25;;;4.97;100.00
45253;BME280;63171;50.520;30.486;2024-02-21T02:06:02;100210.91;;;4.97;100.00
45253;BME280;63171;50.520;30.486;2024-02-21T02:06:55;100215.19;;;4.98;100.00
45253;BME280;63171;50.520;30.486;2024-02-21T02:07:56;100220.38;;;4.98;100.00
45253;BME280;63171;50.520;30.486;2024-02-21T02:08:47;100215.94;;;5.02;100.00
45253;BME280;63171;50.520;30.486;2024-02-21T02:09:46;100214.19;;;5.02;100.00
45253;BME280;63171;50.520;30.486;2024-02-21T02:10:40;100212.44;;;5.03;100.00
45253;BME280;63171;50.520;30.486;2024-02-21T02:11:33;100213.28;;;5.03;100.00
45253;BME280;63171;50.520;30.486;2024-02-21T02:12:23;100212.38;;;5.04;100.00
45253;BME280;63171;50.520;30.486;2024-02-21T02:13:20;100212.66;;;4.97;100.00
45253;BME280;63171;50.520;30.486;2024-02-21T02:14:13;100211.53;;;5.04;100.00
45253;BME280;63171;50.520;30.486;2024-02-21T02:15:06;100222.06;;;4.99;100.00
45253;BME280;63171;50.520;30.486;2024-02-21T02:15:59;100215.88;;;5.03;100.00
45253;BME280;63171;50.520;30.486;2024-02-21T02:16:53;100214.13;;;5.04;100.00
45253;BME280;63171;50.520;30.486;2024-02-21T02:17:45;100215.75;;;5.07;100.00
45253;BME280;63171;50.520;30.486;2024-02-21T02:18:49;100216.53;;;5.10;100.00
45253;BME280;63171;50.520;30.486;2024-02-21T02:19:43;100216.78;;;5.02;100.00
45253;BME280;63171;50.520;30.486;2024-02-21T02:20:38;100214.91;;;5.06;100.00
45253;BME280;63171;50.520;30.486;2024-02-21T02:21:49;100217.69;;;5.01;100.00
45253;BME280;63171;50.520;30.486;2024-02-21T02:22:53;100211.53;;;5.04;100.00
45253;BME280;63171;50.520;30.486;2024-02-21T02:23:47;100209.78;;;5.04;100.00
45253;BME280;63171;50.520;30.486;2024-02-21T02:24:39;100215.88;;;5.03;100.00
45253;BME280;63171;50.520;30.486;2024-02-21T02:25:29;100218.38;;;4.80;100.00
45253;BME280;63171;50.520;30.486;2024-02-21T02:26:20;100214.03;;;4.81;100.00
45253;BME280;63171;50.520;30.486;2024-02-21T02:27:14;100217.19;;;4.90;100.00
45253;BME280;63171;50.520;30.486;2024-02-21T02:28:06;100217.97;;;4.92;100.00
45253;BME280;63171;50.520;30.486;2024-02-21T02:29:21;100212.31;;;5.06;100.00
45253;BME280;63171;50.520;30.486;2024-02-21T02:30:18;100227.66;;;5.14;100.00
45253;BME280;63171;50.520;30.486;2024-02-21T02:31:13;100216.16;;;5.21;100.00
45253;BME280;63171;50.520;30.486;2024-02-21T02:32:07;100223.97;;;5.21;100.00
45253;BME280;63171;50.520;30.486;2024-02-21T02:32:58;100223.13;;;5.19;100.00
45253;BME280;63171;50.520;30.486;2024-02-21T02:33:54;100223.97;;;5.21;100.00
45253;BME280;63171;50.520;30.486;2024-02-21T02:34:48;100231.09;;;5.14;100.00
45253;BME280;63171;50.520;30.486;2024-02-21T02:35:40;100228.44;;;5.16;100.00
45253;BME280;63171;50.520;30.486;2024-02-21T02:36:37;100228.50;;;5.14;100.00
45253;BME280;63171;50.520;30.486;2024-02-21T02:37:35;100225.84;;;5.16;100.00
45253;BME280;63171;50.520;30.486;2024-02-21T02:38:29;100230.84;;;5.22;100.00
45253;BME280;63171;50.520;30.486;2024-02-21T02:39:43;100231.53;;;5.27;100.00
45253;BME280;63171;50.520;30.486;2024-02-21T02:40:55;100227.13;;;5.29;100.00
45253;BME280;63171;50.520;30.486;2024-02-21T02:41:49;100227.41;;;5.20;100.00
45253;BME280;63171;50.520;30.486;2024-02-21T02:42:42;100235.13;;;5.23;100.00
45253;BME280;63171;50.520;30.486;2024-02-21T02:43:49;100234.53;;;5.15;100.00
45253;BME280;63171;50.520;30.486;2024-02-21T02:44:46;100232.63;;;5.20;100.00
45253;BME280;63171;50.520;30.486;2024-02-21T02:45:45;100238.78;;;5.17;100.00
45253;BME280;63171;50.520;30.486;2024-02-21T02:46:35;100238.94;;;5.13;100.00
45253;BME280;63171;50.520;30.486;2024-02-21T02:47:29;100235.50;;;5.12;100.00
45253;BME280;63171;50.520;30.486;2024-02-21T02:48:31;100228.38;;;5.17;100.00
45253;BME280;63171;50.520;30.486;2024-02-21T02:49:22;100232.53;;;5.23;100.00
45253;BME280;63171;50.520;30.486;2024-02-21T02:50:15;100235.19;;;5.21;100.00
45253;BME280;63171;50.520;30.486;2024-02-21T02:51:08;100232.78;;;5.15;100.00
45253;BME280;63171;50.520;30.486;2024-02-21T02:52:02;100236.13;;;5.19;100.00
45253;BME280;63171;50.520;30.486;2024-02-21T02:52:55;100233.69;;;5.14;100.00
45253;BME280;63171;50.520;30.486;2024-02-21T02:53:53;100235.94;;;5.25;100.00
45253;BME280;63171;50.520;30.486;2024-02-21T02:54:50;100237.88;;;5.18;100.00
45253;BME280;63171;50.520;30.486;2024-02-21T02:55:41;100235.38;;;5.15;100.00
45253;BME280;63171;50.520;30.486;2024-02-21T02:56:33;100231.03;;;5.16;100.00
45253;BME280;63171;50.520;30.486;2024-02-21T02:57:28;100223.97;;;5.19;100.00
45253;BME280;63171;50.520;30.486;2024-02-21T02:58:21;100236.97;;;5.19;100.00
45253;BME280;63171;50.520;30.486;2024-02-21T02:59:16;100235.06;;;5.24;100.00
45253;BME280;63171;50.520;30.486;2024-02-21T03:00:18;100238.34;;;5.29;100.00
45253;BME280;63171;50.520;30.486;2024-02-21T03:01:16;100236.72;;;5.27;100.00
45253;BME280;63171;50.520;30.486;2024-02-21T03:02:11;100239.31;;;5.27;100.00
45253;BME280;63171;50.520;30.486;2024-02-21T03:03:09;100240.16;;;5.27;100.00
45253;BME280;63171;50.520;30.486;2024-02-21T03:04:02;100240.22;;;5.26;100.00
45253;BME280;63171;50.520;30.486;2024-02-21T03:04:56;100233.22;;;5.28;100.00
45253;BME280;63171;50.520;30.486;2024-02-21T03:05:47;100237.69;;;5.24;100.00
45253;BME280;63171;50.520;30.486;2024-02-21T03:06:40;100235.94;;;5.25;100.00
45253;BME280;63171;50.520;30.486;2024-02-21T03:07:31;100234.59;;;5.13;100.00
45253;BME280;63171;50.520;30.486;2024-02-21T03:08:24;100239.66;;;5.16;100.00
45253;BME280;63171;50.520;30.486;2024-02-21T03:09:29;100237.03;;;5.18;100.00
45253;BME280;63171;50.520;30.486;2024-02-21T03:10:49;100234.34;;;5.21;100.00
45253;BME280;63171;50.520;30.486;2024-02-21T03:11:41;100238.53;;;5.25;100.00
45253;BME280;63171;50.520;30.486;2024-02-21T03:12:32;100239.44;;;5.24;100.00
45253;BME280;63171;50.520;30.486;2024-02-21T03:13:28;100240.22;;;5.26;100.00
45253;BME280;63171;50.520;30.486;2024-02-21T03:14:23;100246.19;;;5.28;100.00
45253;BME280;63171;50.520;30.486;2024-02-21T03:15:19;100251.44;;;5.26;100.00
45253;BME280;63171;50.520;30.486;2024-02-21T03:16:09;100246.25;;;5.26;100.00
45253;BME280;63171;50.520;30.486;2024-02-21T03:17:02;100247.88;;;5.29;100.00
45253;BME280;63171;50.520;30.486;2024-02-21T03:17:55;100246.94;;;5.31;100.00
45253;BME280;63171;50.520;30.486;2024-02-21T03:19:00;100249.47;;;5.33;100.00
45253;BME280;63171;50.520;30.486;2024-02-21T03:20:20;100255.50;;;5.35;100.00
45253;BME280;63171;50.520;30.486;2024-02-21T03:21:13;100254.16;;;5.23;100.00
45253;BME280;63171;50.520;30.486;2024-02-21T03:22:17;100258.38;;;5.26;100.00
45253;BME280;63171;50.520;30.486;2024-02-21T03:23:11;100256.53;;;5.29;100.00
45253;BME280;63171;50.520;30.486;2024-02-21T03:24:01;100262.00;;;5.22;100.00
45253;BME280;63171;50.520;30.486;2024-02-21T03:24:51;100254.03;;;5.26;100.00
45253;BME280;63171;50.520;30.486;2024-02-21T03:25:50;100258.28;;;5.29;100.00
45253;BME280;63171;50.520;30.486;2024-02-21T03:26:42;100258.22;;;5.30;100.00
45253;BME280;63171;50.520;30.486;2024-02-21T03:27:37;100254.03;;;5.26;100.00
45253;BME280;63171;50.520;30.486;2024-02-21T03:28:27;100256.53;;;5.29;100.00
45253;BME280;63171;50.520;30.486;2024-02-21T03:29:31;100251.63;;;5.22;100.00
45253;BME280;63171;50.520;30.486;2024-02-21T03:30:27;100255.91;;;5.23;100.00
45253;BME280;63171;50.520;30.486;2024-02-21T03:31:25;100253.19;;;5.26;100.00
45253;BME280;63171;50.520;30.486;2024-02-21T03:32:15;100253.31;;;5.23;100.00
45253;BME280;63171;50.520;30.486;2024-02-21T03:33:23;100259.25;;;5.26;100.00
45253;BME280;63171;50.520;30.486;2024-02-21T03:34:15;100254.63;;;5.34;100.00
45253;BME280;63171;50.520;30.486;2024-02-21T03:35:09;100256.28;;;5.37;100.00
45253;BME280;63171;50.520;30.486;2024-02-21T03:36:03;100253.94;;;5.29;100.00
45253;BME280;63171;50.520;30.486;2024-02-21T03:36:57;100252.97;;;5.32;100.00
45253;BME280;63171;50.520;30.486;2024-02-21T03:37:53;100252.19;;;5.30;100.00
45253;BME280;63171;50.520;30.486;2024-02-21T03:38:48;100251.16;;;5.34;100.00
45253;BME280;63171;50.520;30.486;2024-02-21T03:39:39;100257.00;;;5.41;100.00
45253;BME280;63171;50.520;30.486;2024-02-21T03:40:31;100257.84;;;5.41;100.00
45253;BME280;63171;50.520;30.486;2024-02-21T03:41:23;100260.41;;;5.43;100.00
45253;BME280;63171;50.520;30.486;2024-02-21T03:42:20;100259.38;;;5.47;100.00
45253;BME280;63171;50.520;30.486;2024-02-21T03:43:18;100258.50;;;5.48;100.00
45253;BME280;63171;50.520;30.486;2024-02-21T03:44:20;100261.66;;;5.56;100.00
45253;BME280;63171;50.520;30.486;2024-02-21T03:45:14;100260.69;;;5.58;100.00
45253;BME280;63171;50.520;30.486;2024-02-21T03:46:09;100261.72;;;5.54;100.00
45253;BME280;63171;50.520;30.486;2024-02-21T03:47:01;100262.81;;;5.47;100.00
45253;BME280;63171;50.520;30.486;2024-02-21T03:47:56;100265.44;;;5.47;100.00
45253;BME280;63171;50.520;30.486;2024-02-21T03:48:46;100261.94;;;5.48;100.00
45253;BME280;63171;50.520;30.486;2024-02-21T03:49:53;100262.81;;;5.49;100.00
45253;BME280;63171;50.520;30.486;2024-02-21T03:50:45;100261.25;;;5.43;100.00
45253;BME280;63171;50.520;30.486;2024-02-21T03:51:35;100266.44;;;5.43;100.00
45253;BME280;63171;50.520;30.486;2024-02-21T03:52:27;100272.38;;;5.47;100.00
45253;BME280;63171;50.520;30.486;2024-02-21T03:53:19;100270.59;;;5.49;100.00
45253;BME280;63171;50.520;30.486;2024-02-21T03:54:13;100270.84;;;5.41;100.00
45253;BME280;63171;50.520;30.486;2024-02-21T03:55:04;100263.72;;;5.46;100.00
45253;BME280;63171;50.520;30.486;2024-02-21T03:56:10;100268.91;;;5.48;100.00
45253;BME280;63171;50.520;30.486;2024-02-21T03:57:02;100261.00;;;5.51;100.00
45253;BME280;63171;50.520;30.486;2024-02-21T03:58:07;100261.94;;;5.48;100.00
45253;BME280;63171;50.520;30.486;2024-02-21T03:59:06;100269.69;;;5.50;100.00
45253;BME280;63171;50.520;30.486;2024-02-21T04:00:00;100267.81;;;5.53;100.00
45253;BME280;63171;50.520;30.486;2024-02-21T04:01:08;100265.66;;;5.41;100.00
45253;BME280;63171;50.520;30.486;2024-02-21T04:02:04;100266.44;;;5.43;100.00
45253;BME280;63171;50.520;30.486;2024-02-21T04:02:58;100263.22;;;5.37;100.00
45253;BME280;63171;50.520;30.486;2024-02-21T04:04:10;100267.22;;;5.45;100.00
45253;BME280;63171;50.520;30.486;2024-02-21T04:05:08;100271.31;;;5.52;100.00
45253;BME280;63171;50.520;30.486;2024-02-21T04:06:01;100267.59;;;5.59;100.00
45253;BME280;63171;50.520;30.486;2024-02-21T04:06:53;100268.44;;;5.60;100.00
45253;BME280;63171;50.520;30.486;2024-02-21T04:07:45;100262.25;;;5.64;100.00
45253;BME280;63171;50.520;30.486;2024-02-21T04:08:49;100266.59;;;5.63;100.00
45253;BME280;63171;50.520;30.486;2024-02-21T04:09:46;100273.38;;;5.68;100.00
45253;BME280;63171;50.520;30.486;2024-02-21T04:10:37;100266.66;;;5.62;100.00
45253;BME280;63171;50.520;30.486;2024-02-21T04:11:30;100271.75;;;5.65;100.00
45253;BME280;63171;50.520;30.486;2024-02-21T04:12:23;100264.09;;;5.60;100.00
45253;BME280;63171;50.520;30.486;2024-02-21T04:13:18;100267.72;;;5.56;100.00
45253;BME280;63171;50.520;30.486;2024-02-21T04:14:13;100271.22;;;5.55;100.00
45253;BME280;63171;50.520;30.486;2024-02-21T04:15:03;100271.16;;;5.57;100.00
45253;BME280;63171;50.520;30.486;2024-02-21T04:16:14;100271.81;;;5.63;100.00
45253;BME280;63171;50.520;30.486;2024-02-21T04:17:13;100267.44;;;5.64;100.00
45253;BME280;63171;50.520;30.486;2024-02-21T04:18:04;100276.09;;;5.64;100.00
45253;BME280;63171;50.520;30.486;2024-02-21T04:19:00;100273.50;;;5.64;100.00
45253;BME280;63171;50.520;30.486;2024-02-21T04:20:02;100276.16;;;5.63;100.00
45253;BME280;63171;50.520;30.486;2024-02-21T04:20:56;100271.75;;;5.65;100.00
45253;BME280;63171;50.520;30.486;2024-02-21T04:21:51;100272.28;;;5.50;100.00
45253;BME280;63171;50.520;30.486;2024-02-21T04:22:49;100278.94;;;5.57;100.00
45253;BME280;63171;50.520;30.486;2024-02-21T04:23:42;100276.16;;;5.63;100.00
45253;BME280;63171;50.520;30.486;2024-02-21T04:24:37;100273.25;;;5.71;100.00
45253;BME280;63171;50.520;30.486;2024-02-21T04:25:30;100274.91;;;5.73;100.00
45253;BME280;63171;50.520;30.486;2024-02-21T04:26:23;100275.72;;;5.75;100.00
45253;BME280;63171;50.520;30.486;2024-02-21T04:27:14;100275.66;;;5.77;100.00
45253;BME280;63171;50.520;30.486;2024-02-21T04:28:15;100279.91;;;5.79;100.00
45253;BME280;63171;50.520;30.486;2024-02-21T04:29:06;100277.34;;;5.78;100.00
45253;BME280;63171;50.520;30.486;2024-02-21T04:29:57;100276.44;;;5.79;100.00
45253;BME280;63171;50.520;30.486;2024-02-21T04:30:48;100276.31;;;5.82;100.00
45253;BME280;63171;50.520;30.486;2024-02-21T04:31:44;100276.22;;;5.85;100.00
45253;BME280;63171;50.520;30.486;2024-02-21T04:32:44;100277.97;;;5.84;100.00
45253;BME280;63171;50.520;30.486;2024-02-21T04:33:41;100274.63;;;5.81;100.00
45253;BME280;63171;50.520;30.486;2024-02-21T04:34:39;100278.47;;;5.71;100.00
45253;BME280;63171;50.520;30.486;2024-02-21T04:35:33;100283.50;;;5.75;100.00
45253;BME280;63171;50.520;30.486;2024-02-21T04:36:30;100279.19;;;5.74;100.00
45253;BME280;63171;50.520;30.486;2024-02-21T04:37:23;100279.78;;;5.82;100.00
45253;BME280;63171;50.520;30.486;2024-02-21T04:38:15;100282.44;;;5.81;100.00
45253;BME280;63171;50.520;30.486;2024-02-21T04:39:08;100278.94;;;5.82;100.00
45253;BME280;63171;50.520;30.486;2024-02-21T04:40:07;100282.31;;;5.84;100.00
45253;BME280;63171;50.520;30.486;2024-02-21T04:41:13;100277.28;;;5.79;100.00
45253;BME280;63171;50.520;30.486;2024-02-21T04:42:10;100283.53;;;5.74;100.00
45253;BME280;63171;50.520;30.486;2024-02-21T04:43:12;100287.81;;;5.76;100.00
45253;BME280;63171;50.520;30.486;2024-02-21T04:44:08;100276.28;;;5.83;100.00
45253;BME280;63171;50.520;30.486;2024-02-21T04:45:01;100287.50;;;5.84;100.00
45253;BME280;63171;50.520;30.486;2024-02-21T04:45:51;100289.13;;;5.88;100.00
45253;BME280;63171;50.520;30.486;2024-02-21T04:46:43;100283.78;;;5.92;100.00
45253;BME280;63171;50.520;30.486;2024-02-21T04:47:39;100281.84;;;5.98;100.00
45253;BME280;63171;50.520;30.486;2024-02-21T04:48:32;100285.28;;;5.98;100.00
45253;BME280;63171;50.520;30.486;2024-02-21T04:49:24;100283.72;;;5.94;100.00
45253;BME280;63171;50.520;30.486;2024-02-21T04:50:16;100283.91;;;5.88;100.00
45253;BME280;63171;50.520;30.486;2024-02-21T04:51:07;100286.38;;;5.92;100.00
45253;BME280;63171;50.520;30.486;2024-02-21T04:52:00;100291.00;;;5.83;100.00
45253;BME280;63171;50.520;30.486;2024-02-21T04:52:54;100295.31;;;5.84;100.00
45253;BME280;63171;50.520;30.486;2024-02-21T04:53:46;100298.63;;;5.87;100.00
45253;BME280;63171;50.520;30.486;2024-02-21T04:54:42;100299.44;;;5.91;100.00
45253;BME280;63171;50.520;30.486;2024-02-21T04:55:38;100296.00;;;5.89;100.00
45253;BME280;63171;50.520;30.486;2024-02-21T04:56:31;100294.97;;;5.95;100.00